Venice Bridge — 3EAU3 — position and weather

sailwx.info

Track history (hours):
 
Tides and Currents Weather Stations Pressure Air Temp Water Temp Dewpoint Dewpoint Depression Visibility Wind Speed Wind Dir Waves Ship Positions

Venice Bridge

Last reported at 2017-Nov-23 01:29 UTC. Time now 2017-Nov-23 01:44 UTC.
Position N 37°48' W 122°19'.

Type: Cargo ship. MMSI: 352798000.

Date/timePositionNaut miles runAvg speedWind from/ knotsBaromVisibWave heightAir tempDewpointWater temp
2017-Nov-23 01:29N 37°48' W 122°19'0 0.0
2017-Nov-23 00:56N 37°48' W 122°19'0 0.0
2017-Nov-23 00:29N 37°48' W 122°19'0 0.0
2017-Nov-22 23:59N 37°48' W 122°19'0 0.0
2017-Nov-22 23:29N 37°48' W 122°19'0 0.0
2017-Nov-22 22:59N 37°48' W 122°19'0 0.0
2017-Nov-22 22:30N 37°48' W 122°19'0 0.0
2017-Nov-22 21:59N 37°48' W 122°19'0 0.0
2017-Nov-22 21:29N 37°48' W 122°19'0 0.0
2017-Nov-22 20:59N 37°48' W 122°19'0 0.0
2017-Nov-22 20:29N 37°48' W 122°19'0 0.0
2017-Nov-22 19:59N 37°48' W 122°19'0 0.0
2017-Nov-22 19:29N 37°48' W 122°19'  
2017-Nov-20 00:30N 49°09' W 123°03'510.3
2017-Nov-20 00:00N 49°07' W 123°10'510.6
2017-Nov-19 23:30N 49°06' W 123°18'4 7.6
2017-Nov-19 23:00N 49°03' W 123°19'816.0
2017-Nov-19 22:30N 48°57' W 123°10'1019.5
2017-Nov-19 22:00N 48°49' W 123°01'917.4
2017-Nov-19 21:31N 48°43' W 123°10'815.7
2017-Nov-19 21:01N 48°36' W 123°13'1019.4
2017-Nov-19 20:31N 48°26' W 123°10'815.3
2017-Nov-19 20:00N 48°22' W 123°21'3 6.2
2017-Nov-19 19:30N 48°20' W 123°24'713.1
2017-Nov-19 19:00N 48°14' W 123°27'612.3
2017-Nov-19 18:30N 48°09' W 123°22'816.6
2017-Nov-19 18:00N 48°12' W 123°11'1019.0
2017-Nov-19 17:30N 48°12' W 122°56'1019.8
2017-Nov-19 17:00N 48°09' W 122°43'1121.1
2017-Nov-19 16:30N 47°59' W 122°36'918.6
2017-Nov-19 16:00N 47°52' W 122°28'917.4
2017-Nov-19 15:31N 47°43' W 122°26'815.4
2017-Nov-19 15:00N 47°35' W 122°27'713.9
2017-Nov-19 14:31N 47°29' W 122°25'612.8
2017-Nov-19 14:00N 47°22' W 122°22'611.3
2017-Nov-19 13:30N 47°18' W 122°27'2 3.5
2017-Nov-19 12:58N 47°16' W 122°25'0 0.0
2017-Nov-19 12:25N 47°16' W 122°25'0 0.0
2017-Nov-19 11:58N 47°16' W 122°25'0 0.0
2017-Nov-19 11:28N 47°16' W 122°25'0 0.0
2017-Nov-19 10:55N 47°16' W 122°25'0 0.0
2017-Nov-19 10:28N 47°16' W 122°25'0 0.0
2017-Nov-19 09:58N 47°16' W 122°25'0 0.0
2017-Nov-19 09:25N 47°16' W 122°25'0 0.0
2017-Nov-19 08:58N 47°16' W 122°25'0 0.0
2017-Nov-19 08:28N 47°16' W 122°25'0 0.0
2017-Nov-19 07:58N 47°16' W 122°25'0 0.0
2017-Nov-19 07:28N 47°16' W 122°25'0 0.0
2017-Nov-19 06:58N 47°16' W 122°25'0 0.0
2017-Nov-19 06:28N 47°16' W 122°25'0 0.0
2017-Nov-19 05:55N 47°16' W 122°25'0 0.0
2017-Nov-19 05:28N 47°16' W 122°25'0 0.0
2017-Nov-19 04:49N 47°16' W 122°25'0 0.0
2017-Nov-19 04:25N 47°16' W 122°25'0 0.0
2017-Nov-19 03:58N 47°16' W 122°25'0 0.0
2017-Nov-19 03:25N 47°16' W 122°25'0 0.0
2017-Nov-19 02:58N 47°16' W 122°25'0 0.0
2017-Nov-19 02:28N 47°16' W 122°25'0 0.0
2017-Nov-19 01:55N 47°16' W 122°25'0 0.0
2017-Nov-19 01:25N 47°16' W 122°25'0 0.0
2017-Nov-19 00:58N 47°16' W 122°25'1 1.2
2017-Nov-19 00:30N 47°17' W 122°26'2 4.1
2017-Nov-19 00:00N 47°18' W 122°28'611.1
2017-Nov-18 23:30N 47°23' W 122°23'612.4
2017-Nov-18 23:00N 47°29' W 122°25'713.3
2017-Nov-18 22:30N 47°35' W 122°27'713.5
2017-Nov-18 22:00N 47°42' W 122°28'816.7
2017-Nov-18 21:31N 47°50' W 122°28'918.6
2017-Nov-18 21:01N 47°58' W 122°35'1118.7
2017-Nov-18 20:26N 48°08' W 122°42'819.5
2017-Nov-18 20:01N 48°11' W 122°53'1019.8
2017-Nov-18 19:30N 48°12' W 123°08'917.2
2017-Nov-18 19:00N 48°10' W 123°21'4 8.2
2017-Nov-18 18:30N 48°11' W 123°27'510.6
2017-Nov-18 18:00N 48°13' W 123°34'611.0
2017-Nov-18 17:30N 48°13' W 123°42'713.4
2017-Nov-18 17:00N 48°13' W 123°53'816.6
2017-Nov-18 16:30N 48°16' W 124°04'815.7
2017-Nov-18 16:00N 48°20' W 124°15'816.4
2017-Nov-18 15:31N 48°23' W 124°26'815.6
2017-Nov-18 14:58N 48°27' W 124°37'714.9
2017-Nov-18 14:30N 48°29' W 124°47'918.3
2017-Nov-18 14:00N 48°27' W 125°01'1121.5
2017-Nov-18 13:30N 48°17' W 125°08'6820.5
2017-Nov-18 10:12N 47°10' W 125°17'1146.2
2017-Nov-18 09:59N 46°60' W 125°17'4 8.9
2017-Nov-18 09:30N 46°55' W 125°16'1121.2
2017-Nov-18 09:01N 46°45' W 125°16'1121.4
2017-Nov-18 08:30N 46°34' W 125°15'1121.3
2017-Nov-18 08:00N 46°24' W 125°15'1021.0
2017-Nov-18 07:30N 46°13' W 125°13'1020.7
2017-Nov-18 07:00N 46°03' W 125°13'1020.4
2017-Nov-18 06:30N 45°53' W 125°13'1020.2
2017-Nov-18 06:00N 45°42' W 125°12'1020.5
2017-Nov-18 05:30N 45°32' W 125°12'1020.3
2017-Nov-18 05:00N 45°22' W 125°11'39619.4
2017-Nov-17 08:39N 38°50' W 123°60'319.2
2017-Nov-17 08:29N 38°47' W 123°57'919.3
2017-Nov-17 08:00N 38°40' W 123°50'1019.3
2017-Nov-17 07:30N 38°32' W 123°42'1019.2
2017-Nov-17 07:00N 38°25' W 123°35'918.8
2017-Nov-17 06:30N 38°17' W 123°27'918.4
2017-Nov-17 06:01N 38°10' W 123°20'918.3
2017-Nov-17 05:31N 38°03' W 123°13'918.2
2017-Nov-17 05:00N 37°57' W 123°04'918.6
2017-Nov-17 04:30N 37°52' W 122°54'917.6
2017-Nov-17 04:00N 37°48' W 122°45'510.9
2017-Nov-17 03:31N 37°46' W 122°38'815.0
2017-Nov-17 03:01N 37°49' W 122°29'510.5
2017-Nov-17 02:31N 37°49' W 122°23'3 6.8
2017-Nov-17 02:01N 37°48' W 122°19'1 1.2
2017-Nov-17 01:30N 37°48' W 122°18'1 2.7
2017-Nov-17 01:00N 37°48' W 122°19'0 0.0
2017-Nov-17 00:29N 37°48' W 122°19'0 0.0
2017-Nov-16 23:58N 37°48' W 122°19'0 0.0
2017-Nov-16 23:28N 37°48' W 122°19'0 0.0
2017-Nov-16 22:59N 37°48' W 122°19'0 0.0
2017-Nov-16 22:28N 37°48' W 122°19'0 0.0
2017-Nov-16 21:58N 37°48' W 122°19'0 0.0
2017-Nov-16 21:29N 37°48' W 122°19'0 0.0
2017-Nov-16 20:58N 37°48' W 122°19'0 0.0
2017-Nov-16 20:28N 37°48' W 122°19'0 0.0
2017-Nov-16 19:59N 37°48' W 122°19'0 0.0
2017-Nov-16 19:28N 37°48' W 122°19'0 0.0
2017-Nov-16 18:58N 37°48' W 122°19'0 0.0
2017-Nov-16 18:28N 37°48' W 122°19'0 0.0
2017-Nov-16 17:58N 37°48' W 122°19'0 0.0
2017-Nov-16 17:29N 37°48' W 122°19'0 0.0
2017-Nov-16 16:59N 37°48' W 122°19'0 0.0
2017-Nov-16 16:28N 37°48' W 122°19'0 0.0
2017-Nov-16 15:58N 37°48' W 122°19'0 0.0
2017-Nov-16 15:28N 37°48' W 122°19'0 0.0
2017-Nov-16 14:58N 37°48' W 122°19'0 0.4
2017-Nov-16 14:31N 37°48' W 122°20'3 6.4
2017-Nov-16 14:00N 37°49' W 122°24'4 7.7
2017-Nov-16 13:30N 37°49' W 122°28'713.1
2017-Nov-16 13:00N 37°46' W 122°36'4 8.6
2017-Nov-16 12:30N 37°44' W 122°40'611.9
2017-Nov-16 12:00N 37°38' W 122°40'713.3
2017-Nov-16 11:30N 37°31' W 122°40'815.2
2017-Nov-16 11:00N 37°24' W 122°40'815.9
2017-Nov-16 10:30N 37°16' W 122°40'816.6
2017-Nov-16 10:00N 37°07' W 122°40'816.8
2017-Nov-16 09:30N 36°59' W 122°40'9016.8
2017-Nov-16 04:08N 35°36' W 121°55'219.0
2017-Nov-16 04:01N 35°34' W 121°54'1019.2
2017-Nov-16 03:30N 35°26' W 121°48'919.0
2017-Nov-16 03:00N 35°18' W 121°42'918.9
2017-Nov-16 02:31N 35°09' W 121°37'1019.1
2017-Nov-16 02:00N 35°01' W 121°31'1019.2
2017-Nov-16 01:31N 34°53' W 121°25'1019.3
2017-Nov-16 01:00N 34°44' W 121°19'918.7
2017-Nov-16 00:30N 34°36' W 121°13'918.3
2017-Nov-16 00:00N 34°28' W 121°08'918.4
2017-Nov-15 23:30N 34°20' W 121°02'918.6
2017-Nov-15 23:00N 34°13' W 120°56'918.6
2017-Nov-15 22:30N 34°05' W 120°49'918.5
2017-Nov-15 22:01N 33°58' W 120°42'917.8
2017-Nov-15 21:30N 33°52' W 120°34'918.6
2017-Nov-15 21:00N 33°48' W 120°24'918.8
2017-Nov-15 20:30N 33°43' W 120°14'918.6
2017-Nov-15 20:01N 33°42' W 120°03'1018.7
2017-Nov-15 19:30N 33°41' W 119°52'1019.3
2017-Nov-15 19:00N 33°40' W 119°40'1019.6
2017-Nov-15 18:30N 33°39' W 119°29'1019.3
2017-Nov-15 18:00N 33°38' W 119°17'816.9
2017-Nov-15 17:30N 33°37' W 119°07'611.2
2017-Nov-15 17:00N 33°37' W 119°00'611.8
2017-Nov-15 16:30N 33°37' W 118°53'611.5
2017-Nov-15 16:00N 33°37' W 118°46'611.6
2017-Nov-15 15:28N 33°36' W 118°39'511.2
2017-Nov-15 15:00N 33°36' W 118°33'611.1
2017-Nov-15 14:30N 33°36' W 118°26'611.1
2017-Nov-15 14:00N 33°35' W 118°20'510.9
2017-Nov-15 13:30N 33°38' W 118°14'510.0
2017-Nov-15 13:01N 33°42' W 118°11'2 4.5
2017-Nov-15 12:30N 33°44' W 118°12'1 1.4
2017-Nov-15 12:01N 33°45' W 118°12'0 0.0
2017-Nov-15 11:27N 33°45' W 118°12'0 0.0
2017-Nov-15 10:57N 33°45' W 118°12'0 0.0
2017-Nov-15 10:27N 33°45' W 118°12'0 0.0
2017-Nov-15 09:57N 33°45' W 118°12'0 0.0
2017-Nov-15 08:21N 33°45' W 118°12'0 0.0
2017-Nov-15 07:57N 33°45' W 118°12'0 0.0
2017-Nov-15 07:27N 33°45' W 118°12'0 0.0
2017-Nov-15 06:57N 33°45' W 118°12'0 0.0
2017-Nov-15 06:27N 33°45' W 118°12'0 0.0
2017-Nov-15 05:57N 33°45' W 118°12'0 0.0
2017-Nov-15 05:03N 33°45' W 118°12'0 0.0
2017-Nov-15 04:57N 33°45' W 118°12'0 0.0
2017-Nov-15 04:27N 33°45' W 118°12'0 0.0
2017-Nov-15 03:57N 33°45' W 118°12'0 0.0
2017-Nov-15 03:03N 33°45' W 118°12'0 0.0
2017-Nov-15 02:45N 33°45' W 118°12'0 0.0
2017-Nov-15 00:57N 33°45' W 118°12'0 0.0
2017-Nov-14 23:21N 33°45' W 118°12'0 0.0
2017-Nov-14 22:51N 33°45' W 118°12'0 0.0
2017-Nov-14 22:21N 33°45' W 118°12'0 0.0
2017-Nov-14 20:57N 33°45' W 118°12'0 0.0
2017-Nov-14 20:27N 33°45' W 118°12'0 0.0
2017-Nov-14 19:57N 33°45' W 118°12'0 0.0
2017-Nov-14 19:27N 33°45' W 118°12'0 0.0
2017-Nov-14 18:51N 33°45' W 118°12'0 0.0
2017-Nov-14 18:21N 33°45' W 118°12'0 0.0
2017-Nov-14 17:51N 33°45' W 118°12'0 0.0
2017-Nov-14 17:21N 33°45' W 118°12'0 0.0
2017-Nov-14 16:57N 33°45' W 118°12'0 0.0
2017-Nov-14 15:33N 33°45' W 118°12'0 0.0
2017-Nov-14 15:27N 33°45' W 118°12'0 0.0
2017-Nov-14 14:33N 33°45' W 118°12'0 0.1
2017-Nov-14 14:27N 33°45' W 118°12'0 0.0
2017-Nov-14 13:45N 33°45' W 118°12'0 0.0
2017-Nov-14 13:07N 33°45' W 118°12'0 0.4
2017-Nov-14 12:59N 33°45' W 118°12'2 3.6
2017-Nov-14 12:30N 33°43' W 118°11'4 7.7
2017-Nov-14 12:00N 33°39' W 118°10'3 7.0
2017-Nov-14 11:30N 33°36' W 118°10'4 7.5
2017-Nov-14 11:00N 33°32' W 118°08'3 6.7
2017-Nov-14 10:30N 33°29' W 118°06'3 5.2
2017-Nov-14 10:00N 33°27' W 118°06'3 6.7
2017-Nov-14 09:30N 33°24' W 118°04'4 7.1
2017-Nov-14 09:00N 33°20' W 118°03'2 4.9
2017-Nov-14 08:31N 33°18' W 118°02'3 6.7
2017-Nov-14 08:00N 33°15' W 118°01'510.4
2017-Nov-14 07:30N 33°10' W 117°59'510.6
2017-Nov-14 07:00N 33°05' W 117°57'510.7
2017-Nov-14 06:30N 32°60' W 117°55'510.7
2017-Nov-14 06:00N 32°55' W 117°53'510.6
2017-Nov-14 05:30N 32°50' W 117°51'510.6
2017-Nov-14 05:00N 32°44' W 117°49'510.5
2017-Nov-14 04:30N 32°40' W 117°47'510.8
2017-Nov-14 04:01N 32°34' W 117°45'510.9
2017-Nov-14 03:31N 32°29' W 117°43'510.7
2017-Nov-14 03:01N 32°24' W 117°40'510.7
2017-Nov-14 02:30N 32°19' W 117°38'510.5
2017-Nov-14 02:00N 32°14' W 117°37'510.2
2017-Nov-14 01:30N 32°09' W 117°35'510.2
2017-Nov-14 01:00N 32°04' W 117°33'510.0
2017-Nov-14 00:28N 31°59' W 117°31'510.0
2017-Nov-14 00:00N 31°55' W 117°29'5 9.9
2017-Nov-13 23:30N 31°50' W 117°27'4 8.2
2017-Nov-13 23:00N 31°46' W 117°26'1015.6
2017-Nov-13 22:22N 31°37' W 117°22'615.6
2017-Nov-13 22:00N 31°31' W 117°20'  
Track history (hours):
 
Tides and Currents Weather Stations Pressure Air Temp Water Temp Dewpoint Dewpoint Depression Visibility Wind Speed Wind Dir Waves Ship Positions

Venice Bridge

Last reported at 2017-Nov-23 01:29 UTC. Time now 2017-Nov-23 01:44 UTC.
Position N 37°48' W 122°19'.

Type: Cargo ship. MMSI: 352798000.

Date/timePositionNaut miles runAvg speedWind from/ knotsBaromVisibWave heightAir tempDewpointWater temp
2017-Nov-23 01:29N 37°48' W 122°19'0 0.0
2017-Nov-23 00:56N 37°48' W 122°19'0 0.0
2017-Nov-23 00:29N 37°48' W 122°19'0 0.0
2017-Nov-22 23:59N 37°48' W 122°19'0 0.0
2017-Nov-22 23:29N 37°48' W 122°19'0 0.0
2017-Nov-22 22:59N 37°48' W 122°19'0 0.0
2017-Nov-22 22:30N 37°48' W 122°19'0 0.0
2017-Nov-22 21:59N 37°48' W 122°19'0 0.0
2017-Nov-22 21:29N 37°48' W 122°19'0 0.0
2017-Nov-22 20:59N 37°48' W 122°19'0 0.0
2017-Nov-22 20:29N 37°48' W 122°19'0 0.0
2017-Nov-22 19:59N 37°48' W 122°19'0 0.0
2017-Nov-22 19:29N 37°48' W 122°19'  
2017-Nov-20 00:30N 49°09' W 123°03'510.3
2017-Nov-20 00:00N 49°07' W 123°10'510.6
2017-Nov-19 23:30N 49°06' W 123°18'4 7.6
2017-Nov-19 23:00N 49°03' W 123°19'816.0
2017-Nov-19 22:30N 48°57' W 123°10'1019.5
2017-Nov-19 22:00N 48°49' W 123°01'917.4
2017-Nov-19 21:31N 48°43' W 123°10'815.7
2017-Nov-19 21:01N 48°36' W 123°13'1019.4
2017-Nov-19 20:31N 48°26' W 123°10'815.3
2017-Nov-19 20:00N 48°22' W 123°21'3 6.2
2017-Nov-19 19:30N 48°20' W 123°24'713.1
2017-Nov-19 19:00N 48°14' W 123°27'612.3
2017-Nov-19 18:30N 48°09' W 123°22'816.6
2017-Nov-19 18:00N 48°12' W 123°11'1019.0
2017-Nov-19 17:30N 48°12' W 122°56'1019.8
2017-Nov-19 17:00N 48°09' W 122°43'1121.1
2017-Nov-19 16:30N 47°59' W 122°36'918.6
2017-Nov-19 16:00N 47°52' W 122°28'917.4
2017-Nov-19 15:31N 47°43' W 122°26'815.4
2017-Nov-19 15:00N 47°35' W 122°27'713.9
2017-Nov-19 14:31N 47°29' W 122°25'612.8
2017-Nov-19 14:00N 47°22' W 122°22'611.3
2017-Nov-19 13:30N 47°18' W 122°27'2 3.5
2017-Nov-19 12:58N 47°16' W 122°25'0 0.0
2017-Nov-19 12:25N 47°16' W 122°25'0 0.0
2017-Nov-19 11:58N 47°16' W 122°25'0 0.0
2017-Nov-19 11:28N 47°16' W 122°25'0 0.0
2017-Nov-19 10:55N 47°16' W 122°25'0 0.0
2017-Nov-19 10:28N 47°16' W 122°25'0 0.0
2017-Nov-19 09:58N 47°16' W 122°25'0 0.0
2017-Nov-19 09:25N 47°16' W 122°25'0 0.0
2017-Nov-19 08:58N 47°16' W 122°25'0 0.0
2017-Nov-19 08:28N 47°16' W 122°25'0 0.0
2017-Nov-19 07:58N 47°16' W 122°25'0 0.0
2017-Nov-19 07:28N 47°16' W 122°25'0 0.0
2017-Nov-19 06:58N 47°16' W 122°25'0 0.0
2017-Nov-19 06:28N 47°16' W 122°25'0 0.0
2017-Nov-19 05:55N 47°16' W 122°25'0 0.0
2017-Nov-19 05:28N 47°16' W 122°25'0 0.0
2017-Nov-19 04:49N 47°16' W 122°25'0 0.0
2017-Nov-19 04:25N 47°16' W 122°25'0 0.0
2017-Nov-19 03:58N 47°16' W 122°25'0 0.0
2017-Nov-19 03:25N 47°16' W 122°25'0 0.0
2017-Nov-19 02:58N 47°16' W 122°25'0 0.0
2017-Nov-19 02:28N 47°16' W 122°25'0 0.0
2017-Nov-19 01:55N 47°16' W 122°25'0 0.0
2017-Nov-19 01:25N 47°16' W 122°25'0 0.0
2017-Nov-19 00:58N 47°16' W 122°25'1 1.2
2017-Nov-19 00:30N 47°17' W 122°26'2 4.1
2017-Nov-19 00:00N 47°18' W 122°28'611.1
2017-Nov-18 23:30N 47°23' W 122°23'612.4
2017-Nov-18 23:00N 47°29' W 122°25'713.3
2017-Nov-18 22:30N 47°35' W 122°27'713.5
2017-Nov-18 22:00N 47°42' W 122°28'816.7
2017-Nov-18 21:31N 47°50' W 122°28'918.6
2017-Nov-18 21:01N 47°58' W 122°35'1118.7
2017-Nov-18 20:26N 48°08' W 122°42'819.5
2017-Nov-18 20:01N 48°11' W 122°53'1019.8
2017-Nov-18 19:30N 48°12' W 123°08'917.2
2017-Nov-18 19:00N 48°10' W 123°21'4 8.2
2017-Nov-18 18:30N 48°11' W 123°27'510.6
2017-Nov-18 18:00N 48°13' W 123°34'611.0
2017-Nov-18 17:30N 48°13' W 123°42'713.4
2017-Nov-18 17:00N 48°13' W 123°53'816.6
2017-Nov-18 16:30N 48°16' W 124°04'815.7
2017-Nov-18 16:00N 48°20' W 124°15'816.4
2017-Nov-18 15:31N 48°23' W 124°26'815.6
2017-Nov-18 14:58N 48°27' W 124°37'714.9
2017-Nov-18 14:30N 48°29' W 124°47'918.3
2017-Nov-18 14:00N 48°27' W 125°01'1121.5
2017-Nov-18 13:30N 48°17' W 125°08'6820.5
2017-Nov-18 10:12N 47°10' W 125°17'1146.2
2017-Nov-18 09:59N 46°60' W 125°17'4 8.9
2017-Nov-18 09:30N 46°55' W 125°16'1121.2
2017-Nov-18 09:01N 46°45' W 125°16'1121.4
2017-Nov-18 08:30N 46°34' W 125°15'1121.3
2017-Nov-18 08:00N 46°24' W 125°15'1021.0
2017-Nov-18 07:30N 46°13' W 125°13'1020.7
2017-Nov-18 07:00N 46°03' W 125°13'1020.4
2017-Nov-18 06:30N 45°53' W 125°13'1020.2
2017-Nov-18 06:00N 45°42' W 125°12'1020.5
2017-Nov-18 05:30N 45°32' W 125°12'1020.3
2017-Nov-18 05:00N 45°22' W 125°11'39619.4
2017-Nov-17 08:39N 38°50' W 123°60'319.2
2017-Nov-17 08:29N 38°47' W 123°57'919.3
2017-Nov-17 08:00N 38°40' W 123°50'1019.3
2017-Nov-17 07:30N 38°32' W 123°42'1019.2
2017-Nov-17 07:00N 38°25' W 123°35'918.8
2017-Nov-17 06:30N 38°17' W 123°27'918.4
2017-Nov-17 06:01N 38°10' W 123°20'918.3
2017-Nov-17 05:31N 38°03' W 123°13'918.2
2017-Nov-17 05:00N 37°57' W 123°04'918.6
2017-Nov-17 04:30N 37°52' W 122°54'917.6
2017-Nov-17 04:00N 37°48' W 122°45'510.9
2017-Nov-17 03:31N 37°46' W 122°38'815.0
2017-Nov-17 03:01N 37°49' W 122°29'510.5
2017-Nov-17 02:31N 37°49' W 122°23'3 6.8
2017-Nov-17 02:01N 37°48' W 122°19'1 1.2
2017-Nov-17 01:30N 37°48' W 122°18'1 2.7
2017-Nov-17 01:00N 37°48' W 122°19'0 0.0
2017-Nov-17 00:29N 37°48' W 122°19'0 0.0
2017-Nov-16 23:58N 37°48' W 122°19'0 0.0
2017-Nov-16 23:28N 37°48' W 122°19'0 0.0
2017-Nov-16 22:59N 37°48' W 122°19'0 0.0
2017-Nov-16 22:28N 37°48' W 122°19'0 0.0
2017-Nov-16 21:58N 37°48' W 122°19'0 0.0
2017-Nov-16 21:29N 37°48' W 122°19'0 0.0
2017-Nov-16 20:58N 37°48' W 122°19'0 0.0
2017-Nov-16 20:28N 37°48' W 122°19'0 0.0
2017-Nov-16 19:59N 37°48' W 122°19'0 0.0
2017-Nov-16 19:28N 37°48' W 122°19'0 0.0
2017-Nov-16 18:58N 37°48' W 122°19'0 0.0
2017-Nov-16 18:28N 37°48' W 122°19'0 0.0
2017-Nov-16 17:58N 37°48' W 122°19'0 0.0
2017-Nov-16 17:29N 37°48' W 122°19'0 0.0
2017-Nov-16 16:59N 37°48' W 122°19'0 0.0
2017-Nov-16 16:28N 37°48' W 122°19'0 0.0
2017-Nov-16 15:58N 37°48' W 122°19'0 0.0
2017-Nov-16 15:28N 37°48' W 122°19'0 0.0
2017-Nov-16 14:58N 37°48' W 122°19'0 0.4
2017-Nov-16 14:31N 37°48' W 122°20'3 6.4
2017-Nov-16 14:00N 37°49' W 122°24'4 7.7
2017-Nov-16 13:30N 37°49' W 122°28'713.1
2017-Nov-16 13:00N 37°46' W 122°36'4 8.6
2017-Nov-16 12:30N 37°44' W 122°40'611.9
2017-Nov-16 12:00N 37°38' W 122°40'713.3
2017-Nov-16 11:30N 37°31' W 122°40'815.2
2017-Nov-16 11:00N 37°24' W 122°40'815.9
2017-Nov-16 10:30N 37°16' W 122°40'816.6
2017-Nov-16 10:00N 37°07' W 122°40'816.8
2017-Nov-16 09:30N 36°59' W 122°40'9016.8
2017-Nov-16 04:08N 35°36' W 121°55'219.0
2017-Nov-16 04:01N 35°34' W 121°54'1019.2
2017-Nov-16 03:30N 35°26' W 121°48'919.0
2017-Nov-16 03:00N 35°18' W 121°42'918.9
2017-Nov-16 02:31N 35°09' W 121°37'1019.1
2017-Nov-16 02:00N 35°01' W 121°31'1019.2
2017-Nov-16 01:31N 34°53' W 121°25'1019.3
2017-Nov-16 01:00N 34°44' W 121°19'918.7
2017-Nov-16 00:30N 34°36' W 121°13'918.3
2017-Nov-16 00:00N 34°28' W 121°08'918.4
2017-Nov-15 23:30N 34°20' W 121°02'918.6
2017-Nov-15 23:00N 34°13' W 120°56'918.6
2017-Nov-15 22:30N 34°05' W 120°49'918.5
2017-Nov-15 22:01N 33°58' W 120°42'917.8
2017-Nov-15 21:30N 33°52' W 120°34'918.6
2017-Nov-15 21:00N 33°48' W 120°24'918.8
2017-Nov-15 20:30N 33°43' W 120°14'918.6
2017-Nov-15 20:01N 33°42' W 120°03'1018.7
2017-Nov-15 19:30N 33°41' W 119°52'1019.3
2017-Nov-15 19:00N 33°40' W 119°40'1019.6
2017-Nov-15 18:30N 33°39' W 119°29'1019.3
2017-Nov-15 18:00N 33°38' W 119°17'816.9
2017-Nov-15 17:30N 33°37' W 119°07'611.2
2017-Nov-15 17:00N 33°37' W 119°00'611.8
2017-Nov-15 16:30N 33°37' W 118°53'611.5
2017-Nov-15 16:00N 33°37' W 118°46'611.6
2017-Nov-15 15:28N 33°36' W 118°39'511.2
2017-Nov-15 15:00N 33°36' W 118°33'611.1
2017-Nov-15 14:30N 33°36' W 118°26'611.1
2017-Nov-15 14:00N 33°35' W 118°20'510.9
2017-Nov-15 13:30N 33°38' W 118°14'510.0
2017-Nov-15 13:01N 33°42' W 118°11'2 4.5
2017-Nov-15 12:30N 33°44' W 118°12'1 1.4
2017-Nov-15 12:01N 33°45' W 118°12'0 0.0
2017-Nov-15 11:27N 33°45' W 118°12'0 0.0
2017-Nov-15 10:57N 33°45' W 118°12'0 0.0
2017-Nov-15 10:27N 33°45' W 118°12'0 0.0
2017-Nov-15 09:57N 33°45' W 118°12'0 0.0
2017-Nov-15 08:21N 33°45' W 118°12'0 0.0
2017-Nov-15 07:57N 33°45' W 118°12'0 0.0
2017-Nov-15 07:27N 33°45' W 118°12'0 0.0
2017-Nov-15 06:57N 33°45' W 118°12'0 0.0
2017-Nov-15 06:27N 33°45' W 118°12'0 0.0
2017-Nov-15 05:57N 33°45' W 118°12'0 0.0
2017-Nov-15 05:03N 33°45' W 118°12'0 0.0
2017-Nov-15 04:57N 33°45' W 118°12'0 0.0
2017-Nov-15 04:27N 33°45' W 118°12'0 0.0
2017-Nov-15 03:57N 33°45' W 118°12'0 0.0
2017-Nov-15 03:03N 33°45' W 118°12'0 0.0
2017-Nov-15 02:45N 33°45' W 118°12'0 0.0
2017-Nov-15 00:57N 33°45' W 118°12'0 0.0
2017-Nov-14 23:21N 33°45' W 118°12'0 0.0
2017-Nov-14 22:51N 33°45' W 118°12'0 0.0
2017-Nov-14 22:21N 33°45' W 118°12'0 0.0
2017-Nov-14 20:57N 33°45' W 118°12'0 0.0
2017-Nov-14 20:27N 33°45' W 118°12'0 0.0
2017-Nov-14 19:57N 33°45' W 118°12'0 0.0
2017-Nov-14 19:27N 33°45' W 118°12'0 0.0
2017-Nov-14 18:51N 33°45' W 118°12'0 0.0
2017-Nov-14 18:21N 33°45' W 118°12'0 0.0
2017-Nov-14 17:51N 33°45' W 118°12'0 0.0
2017-Nov-14 17:21N 33°45' W 118°12'0 0.0
2017-Nov-14 16:57N 33°45' W 118°12'0 0.0
2017-Nov-14 15:33N 33°45' W 118°12'0 0.0
2017-Nov-14 15:27N 33°45' W 118°12'0 0.0
2017-Nov-14 14:33N 33°45' W 118°12'0 0.1
2017-Nov-14 14:27N 33°45' W 118°12'0 0.0
2017-Nov-14 13:45N 33°45' W 118°12'0 0.0
2017-Nov-14 13:07N 33°45' W 118°12'0 0.4
2017-Nov-14 12:59N 33°45' W 118°12'2 3.6
2017-Nov-14 12:30N 33°43' W 118°11'4 7.7
2017-Nov-14 12:00N 33°39' W 118°10'3 7.0
2017-Nov-14 11:30N 33°36' W 118°10'4 7.5
2017-Nov-14 11:00N 33°32' W 118°08'3 6.7
2017-Nov-14 10:30N 33°29' W 118°06'3 5.2
2017-Nov-14 10:00N 33°27' W 118°06'3 6.7
2017-Nov-14 09:30N 33°24' W 118°04'4 7.1
2017-Nov-14 09:00N 33°20' W 118°03'2 4.9
2017-Nov-14 08:31N 33°18' W 118°02'3 6.7
2017-Nov-14 08:00N 33°15' W 118°01'510.4
2017-Nov-14 07:30N 33°10' W 117°59'510.6
2017-Nov-14 07:00N 33°05' W 117°57'510.7
2017-Nov-14 06:30N 32°60' W 117°55'510.7
2017-Nov-14 06:00N 32°55' W 117°53'510.6
2017-Nov-14 05:30N 32°50' W 117°51'510.6
2017-Nov-14 05:00N 32°44' W 117°49'510.5
2017-Nov-14 04:30N 32°40' W 117°47'510.8
2017-Nov-14 04:01N 32°34' W 117°45'510.9
2017-Nov-14 03:31N 32°29' W 117°43'510.7
2017-Nov-14 03:01N 32°24' W 117°40'510.7
2017-Nov-14 02:30N 32°19' W 117°38'510.5
2017-Nov-14 02:00N 32°14' W 117°37'510.2
2017-Nov-14 01:30N 32°09' W 117°35'510.2
2017-Nov-14 01:00N 32°04' W 117°33'510.0
2017-Nov-14 00:28N 31°59' W 117°31'510.0
2017-Nov-14 00:00N 31°55' W 117°29'5 9.9
2017-Nov-13 23:30N 31°50' W 117°27'4 8.2
2017-Nov-13 23:00N 31°46' W 117°26'1015.6
2017-Nov-13 22:22N 31°37' W 117°22'615.6
2017-Nov-13 22:00N 31°31' W 117°20'  

Dump ship's entire track history